sensor_id;sensor_type;location;lat;lon;timestamp;pressure;altitude;pressure_sealevel;temperature;humidity
70571;BME280;58135;50.948;-1.458;2022-08-19T00:01:41;100991.66;;;22.72;15.99
70571;BME280;58135;50.948;-1.458;2022-08-19T00:04:07;100991.98;;;22.67;16.03
70571;BME280;58135;50.948;-1.458;2022-08-19T00:06:30;100989.64;;;21.81;16.10
70571;BME280;58135;50.948;-1.458;2022-08-19T00:08:56;100986.06;;;20.86;15.51
70571;BME280;58135;50.948;-1.458;2022-08-19T00:11:21;100983.13;;;21.63;16.24
70571;BME280;58135;50.948;-1.458;2022-08-19T00:13:46;100982.47;;;22.44;16.38
70571;BME280;58135;50.948;-1.458;2022-08-19T00:16:12;100981.88;;;23.33;16.26
70571;BME280;58135;50.948;-1.458;2022-08-19T00:18:37;100983.84;;;22.45;16.43
70571;BME280;58135;50.948;-1.458;2022-08-19T00:21:03;100985.07;;;22.39;16.38
70571;BME280;58135;50.948;-1.458;2022-08-19T00:23:28;100985.55;;;23.13;16.45
70571;BME280;58135;50.948;-1.458;2022-08-19T00:25:53;100986.41;;;23.90;16.51
70571;BME280;58135;50.948;-1.458;2022-08-19T00:28:19;100984.32;;;22.96;16.48
70571;BME280;58135;50.948;-1.458;2022-08-19T00:30:44;100983.82;;;22.94;16.24
70571;BME280;58135;50.948;-1.458;2022-08-19T00:33:10;100982.72;;;21.14;16.45
70571;BME280;58135;50.948;-1.458;2022-08-19T00:35:35;100987.55;;;23.00;16.46
70571;BME280;58135;50.948;-1.458;2022-08-19T00:38:01;100983.96;;;21.36;16.13
70571;BME280;58135;50.948;-1.458;2022-08-19T00:40:26;100989.70;;;22.22;16.37
70571;BME280;58135;50.948;-1.458;2022-08-19T00:42:52;100983.92;;;22.18;16.45
70571;BME280;58135;50.948;-1.458;2022-08-19T00:45:20;100983.13;;;23.14;16.47
70571;BME280;58135;50.948;-1.458;2022-08-19T00:47:43;100981.40;;;22.29;16.32
70571;BME280;58135;50.948;-1.458;2022-08-19T00:50:10;100982.85;;;24.01;16.46
70571;BME280;58135;50.948;-1.458;2022-08-19T00:52:37;100984.93;;;21.36;16.52
70571;BME280;58135;50.948;-1.458;2022-08-19T00:55:00;100982.76;;;24.05;16.42
70571;BME280;58135;50.948;-1.458;2022-08-19T00:57:28;100983.63;;;23.91;16.38
70571;BME280;58135;50.948;-1.458;2022-08-19T00:59:52;100979.05;;;22.22;16.38
70571;BME280;58135;50.948;-1.458;2022-08-19T01:02:16;100974.39;;;21.35;16.34
70571;BME280;58135;50.948;-1.458;2022-08-19T01:04:41;100972.98;;;22.34;16.26
70571;BME280;58135;50.948;-1.458;2022-08-19T01:07:07;100971.45;;;21.48;16.34
70571;BME280;58135;50.948;-1.458;2022-08-19T01:09:32;100970.68;;;21.43;15.85
70571;BME280;58135;50.948;-1.458;2022-08-19T01:11:58;100972.82;;;23.94;16.15
70571;BME280;58135;50.948;-1.458;2022-08-19T01:14:24;100975.28;;;23.07;16.07
70571;BME280;58135;50.948;-1.458;2022-08-19T01:16:49;100975.51;;;22.26;16.32
70571;BME280;58135;50.948;-1.458;2022-08-19T01:19:18;100975.48;;;22.26;15.69
70571;BME280;58135;50.948;-1.458;2022-08-19T01:21:43;100973.35;;;22.22;16.12
70571;BME280;58135;50.948;-1.458;2022-08-19T01:24:05;100971.82;;;23.67;16.03
70571;BME280;58135;50.948;-1.458;2022-08-19T01:26:30;100972.73;;;21.73;16.16
70571;BME280;58135;50.948;-1.458;2022-08-19T01:28:57;100973.90;;;20.88;16.30
70571;BME280;58135;50.948;-1.458;2022-08-19T01:31:23;100973.28;;;23.62;16.22
70571;BME280;58135;50.948;-1.458;2022-08-19T01:33:47;100975.83;;;21.98;15.99
70571;BME280;58135;50.948;-1.458;2022-08-19T01:36:15;100981.85;;;22.88;16.12
70571;BME280;58135;50.948;-1.458;2022-08-19T01:38:41;100978.70;;;20.32;16.19
70571;BME280;58135;50.948;-1.458;2022-08-19T01:41:03;100976.74;;;22.02;16.24
70571;BME280;58135;50.948;-1.458;2022-08-19T01:43:29;100971.64;;;22.08;16.12
70571;BME280;58135;50.948;-1.458;2022-08-19T01:45:54;100969.30;;;23.89;16.27
70571;BME280;58135;50.948;-1.458;2022-08-19T01:48:20;100965.76;;;22.19;15.97
70571;BME280;58135;50.948;-1.458;2022-08-19T01:50:45;100966.59;;;22.08;16.01
70571;BME280;58135;50.948;-1.458;2022-08-19T01:53:11;100969.92;;;22.83;16.01
70571;BME280;58135;50.948;-1.458;2022-08-19T01:55:37;100970.70;;;21.05;16.18
70571;BME280;58135;50.948;-1.458;2022-08-19T01:58:02;100967.17;;;21.84;16.16
70571;BME280;58135;50.948;-1.458;2022-08-19T02:00:30;100969.62;;;22.73;16.24
70571;BME280;58135;50.948;-1.458;2022-08-19T02:02:52;100967.28;;;22.63;15.15
70571;BME280;58135;50.948;-1.458;2022-08-19T02:05:17;100970.70;;;22.55;16.00
70571;BME280;58135;50.948;-1.458;2022-08-19T02:07:43;100970.37;;;21.62;16.07
70571;BME280;58135;50.948;-1.458;2022-08-19T02:10:12;100968.51;;;23.32;16.17
70571;BME280;58135;50.948;-1.458;2022-08-19T02:12:34;100969.26;;;21.41;15.91
70571;BME280;58135;50.948;-1.458;2022-08-19T02:14:59;100973.13;;;22.25;16.13
70571;BME280;58135;50.948;-1.458;2022-08-19T02:17:25;100978.37;;;22.20;15.99
70571;BME280;58135;50.948;-1.458;2022-08-19T02:19:50;100978.95;;;22.25;16.27
70571;BME280;58135;50.948;-1.458;2022-08-19T02:22:16;100976.45;;;23.19;15.85
70571;BME280;58135;50.948;-1.458;2022-08-19T02:24:42;100978.80;;;22.43;16.37
70571;BME280;58135;50.948;-1.458;2022-08-19T02:27:07;100976.99;;;21.52;16.26
70571;BME280;58135;50.948;-1.458;2022-08-19T02:29:32;100975.11;;;22.33;16.52
70571;BME280;58135;50.948;-1.458;2022-08-19T02:31:57;100973.60;;;23.05;16.11
70571;BME280;58135;50.948;-1.458;2022-08-19T02:34:23;100972.62;;;20.38;15.98
70571;BME280;58135;50.948;-1.458;2022-08-19T02:36:48;100971.90;;;22.22;15.84
70571;BME280;58135;50.948;-1.458;2022-08-19T02:39:14;100977.47;;;21.36;16.09
70571;BME280;58135;50.948;-1.458;2022-08-19T02:41:39;100981.11;;;23.08;16.11
70571;BME280;58135;50.948;-1.458;2022-08-19T02:44:05;100987.71;;;21.30;16.10
70571;BME280;58135;50.948;-1.458;2022-08-19T02:46:32;100987.37;;;21.21;16.10
70571;BME280;58135;50.948;-1.458;2022-08-19T02:48:58;100983.80;;;22.12;16.01
70571;BME280;58135;50.948;-1.458;2022-08-19T02:51:23;100981.90;;;21.20;16.40
70571;BME280;58135;50.948;-1.458;2022-08-19T02:53:47;100979.88;;;22.91;16.37
70571;BME280;58135;50.948;-1.458;2022-08-19T02:56:12;100979.07;;;22.81;16.47
70571;BME280;58135;50.948;-1.458;2022-08-19T02:58:38;100978.87;;;22.69;16.53
70571;BME280;58135;50.948;-1.458;2022-08-19T03:01:04;100980.29;;;22.75;16.50
70571;BME280;58135;50.948;-1.458;2022-08-19T03:03:28;100973.87;;;23.63;16.70
70571;BME280;58135;50.948;-1.458;2022-08-19T03:06:03;100975.01;;;20.83;16.26
70571;BME280;58135;50.948;-1.458;2022-08-19T03:08:20;100978.56;;;22.38;16.32
70571;BME280;58135;50.948;-1.458;2022-08-19T03:10:47;100987.09;;;23.13;16.08
70571;BME280;58135;50.948;-1.458;2022-08-19T03:13:12;100998.19;;;22.00;16.11
70571;BME280;58135;50.948;-1.458;2022-08-19T03:15:39;101004.63;;;21.99;16.41
70571;BME280;58135;50.948;-1.458;2022-08-19T03:18:01;101007.06;;;21.02;16.45
70571;BME280;58135;50.948;-1.458;2022-08-19T03:20:27;101005.52;;;21.08;16.51
70571;BME280;58135;50.948;-1.458;2022-08-19T03:22:52;100999.11;;;22.08;16.39
70571;BME280;58135;50.948;-1.458;2022-08-19T03:25:18;100999.46;;;20.34;16.34
70571;BME280;58135;50.948;-1.458;2022-08-19T03:27:43;101000.25;;;22.09;16.45
70571;BME280;58135;50.948;-1.458;2022-08-19T03:30:10;101000.18;;;22.12;16.62
70571;BME280;58135;50.948;-1.458;2022-08-19T03:32:34;100998.67;;;23.14;16.51
70571;BME280;58135;50.948;-1.458;2022-08-19T03:34:59;101000.64;;;20.50;16.49
70571;BME280;58135;50.948;-1.458;2022-08-19T03:37:25;101002.14;;;21.38;16.57
70571;BME280;58135;50.948;-1.458;2022-08-19T03:39:51;101005.72;;;21.42;16.29
70571;BME280;58135;50.948;-1.458;2022-08-19T03:42:16;101011.46;;;21.44;16.24
70571;BME280;58135;50.948;-1.458;2022-08-19T03:44:41;101012.92;;;22.34;16.39
70571;BME280;58135;50.948;-1.458;2022-08-19T03:47:07;101009.70;;;22.30;16.27
70571;BME280;58135;50.948;-1.458;2022-08-19T03:49:34;101010.01;;;22.19;16.22
70571;BME280;58135;50.948;-1.458;2022-08-19T03:51:58;101012.08;;;22.12;16.51
70571;BME280;58135;50.948;-1.458;2022-08-19T03:54:24;101015.41;;;22.92;16.47
70571;BME280;58135;50.948;-1.458;2022-08-19T03:56:51;101013.09;;;22.83;16.33
70571;BME280;58135;50.948;-1.458;2022-08-19T03:59:18;101009.85;;;20.83;16.70
70571;BME280;58135;50.948;-1.458;2022-08-19T04:01:40;101012.21;;;22.53;16.65
70571;BME280;58135;50.948;-1.458;2022-08-19T04:04:05;101014.68;;;22.35;16.48
70571;BME280;58135;50.948;-1.458;2022-08-19T04:06:33;101013.55;;;21.24;16.64
70571;BME280;58135;50.948;-1.458;2022-08-19T04:08:58;101012.44;;;21.14;16.51
70571;BME280;58135;50.948;-1.458;2022-08-19T04:11:24;101013.26;;;22.05;16.50
70571;BME280;58135;50.948;-1.458;2022-08-19T04:13:47;101010.64;;;21.98;16.31
70571;BME280;58135;50.948;-1.458;2022-08-19T04:16:13;101014.25;;;21.89;16.67
70571;BME280;58135;50.948;-1.458;2022-08-19T04:18:39;101018.67;;;21.13;16.52
70571;BME280;58135;50.948;-1.458;2022-08-19T04:21:04;101018.22;;;21.99;16.53
70571;BME280;58135;50.948;-1.458;2022-08-19T04:23:29;101025.08;;;21.89;16.21
70571;BME280;58135;50.948;-1.458;2022-08-19T04:25:55;101027.21;;;21.70;16.32
70571;BME280;58135;50.948;-1.458;2022-08-19T04:28:21;101033.96;;;21.75;16.47
70571;BME280;58135;50.948;-1.458;2022-08-19T04:30:48;101032.66;;;20.08;16.05
70571;BME280;58135;50.948;-1.458;2022-08-19T04:33:12;101026.95;;;20.20;16.45
70571;BME280;58135;50.948;-1.458;2022-08-19T04:35:38;101020.69;;;21.18;16.17
70571;BME280;58135;50.948;-1.458;2022-08-19T04:38:01;101016.56;;;21.12;16.76
70571;BME280;58135;50.948;-1.458;2022-08-19T04:40:27;101020.54;;;22.03;16.81
70571;BME280;58135;50.948;-1.458;2022-08-19T04:42:52;101026.14;;;21.26;16.84
70571;BME280;58135;50.948;-1.458;2022-08-19T04:45:18;101030.00;;;23.06;16.76
70571;BME280;58135;50.948;-1.458;2022-08-19T04:47:44;101033.41;;;21.28;16.79
70571;BME280;58135;50.948;-1.458;2022-08-19T04:50:10;101038.56;;;22.11;16.74
70571;BME280;58135;50.948;-1.458;2022-08-19T04:52:34;101041.44;;;20.49;16.65
70571;BME280;58135;50.948;-1.458;2022-08-19T04:55:00;101043.91;;;20.44;16.46
70571;BME280;58135;50.948;-1.458;2022-08-19T04:57:25;101047.94;;;22.25;16.65
70571;BME280;58135;50.948;-1.458;2022-08-19T04:59:54;101050.28;;;22.34;16.61
70571;BME280;58135;50.948;-1.458;2022-08-19T05:02:16;101051.33;;;22.46;16.64
70571;BME280;58135;50.948;-1.458;2022-08-19T05:04:42;101051.23;;;21.65;16.53
70571;BME280;58135;50.948;-1.458;2022-08-19T05:07:08;101055.27;;;21.61;16.35
70571;BME280;58135;50.948;-1.458;2022-08-19T05:09:33;101064.02;;;22.93;16.84
70571;BME280;58135;50.948;-1.458;2022-08-19T05:11:58;101056.79;;;19.23;17.43
70571;BME280;58135;50.948;-1.458;2022-08-19T05:14:23;101063.33;;;21.21;17.50
70571;BME280;58135;50.948;-1.458;2022-08-19T05:16:49;101062.08;;;20.77;18.03
70571;BME280;58135;50.948;-1.458;2022-08-19T05:19:14;101065.33;;;19.99;18.44
70571;BME280;58135;50.948;-1.458;2022-08-19T05:21:41;101070.82;;;18.99;18.26
70571;BME280;58135;50.948;-1.458;2022-08-19T05:24:06;101072.46;;;20.91;18.39
70571;BME280;58135;50.948;-1.458;2022-08-19T05:26:31;101072.60;;;19.36;18.30
70571;BME280;58135;50.948;-1.458;2022-08-19T05:28:56;101070.01;;;22.14;18.24
70571;BME280;58135;50.948;-1.458;2022-08-19T05:31:22;101075.74;;;20.23;18.31
70571;BME280;58135;50.948;-1.458;2022-08-19T05:33:47;101077.02;;;19.68;18.37
70571;BME280;58135;50.948;-1.458;2022-08-19T05:36:13;101075.99;;;20.61;18.31
70571;BME280;58135;50.948;-1.458;2022-08-19T05:38:38;101075.34;;;19.15;18.17
70571;BME280;58135;50.948;-1.458;2022-08-19T05:41:07;101075.87;;;19.10;18.19
70571;BME280;58135;50.948;-1.458;2022-08-19T05:43:29;101078.52;;;18.68;18.19
70571;BME280;58135;50.948;-1.458;2022-08-19T05:45:54;101089.05;;;20.90;18.34
70571;BME280;58135;50.948;-1.458;2022-08-19T05:48:20;101092.73;;;20.87;18.15
70571;BME280;58135;50.948;-1.458;2022-08-19T05:50:46;101092.40;;;19.01;18.02
70571;BME280;58135;50.948;-1.458;2022-08-19T05:53:11;101095.08;;;18.38;17.98
70571;BME280;58135;50.948;-1.458;2022-08-19T05:55:36;101092.89;;;19.46;17.70
70571;BME280;58135;50.948;-1.458;2022-08-19T05:58:02;101091.70;;;20.42;17.74
70571;BME280;58135;50.948;-1.458;2022-08-19T06:00:27;101095.51;;;19.42;17.10
70571;BME280;58135;50.948;-1.458;2022-08-19T06:02:53;101096.20;;;19.51;17.73
70571;BME280;58135;50.948;-1.458;2022-08-19T06:05:18;101089.19;;;20.67;17.72
70571;BME280;58135;50.948;-1.458;2022-08-19T06:07:44;101089.21;;;21.95;17.63
70571;BME280;58135;50.948;-1.458;2022-08-19T06:10:11;101089.36;;;20.50;17.60
70571;BME280;58135;50.948;-1.458;2022-08-19T06:12:35;101084.64;;;20.74;17.54
70571;BME280;58135;50.948;-1.458;2022-08-19T06:15:02;101085.89;;;20.78;17.52
70571;BME280;58135;50.948;-1.458;2022-08-19T06:17:26;101091.58;;;21.93;17.37
70571;BME280;58135;50.948;-1.458;2022-08-19T06:19:51;101093.72;;;21.11;17.25
70571;BME280;58135;50.948;-1.458;2022-08-19T06:22:17;101093.81;;;21.92;17.28
70571;BME280;58135;50.948;-1.458;2022-08-19T06:24:43;101090.54;;;21.18;17.38
70571;BME280;58135;50.948;-1.458;2022-08-19T06:27:08;101087.06;;;21.32;17.27
70571;BME280;58135;50.948;-1.458;2022-08-19T06:29:34;101086.25;;;19.68;17.24
70571;BME280;58135;50.948;-1.458;2022-08-19T06:32:00;101086.07;;;22.49;17.20
70571;BME280;58135;50.948;-1.458;2022-08-19T06:34:25;101088.02;;;20.91;17.25
70571;BME280;58135;50.948;-1.458;2022-08-19T06:36:51;101088.42;;;20.68;17.29
70571;BME280;58135;50.948;-1.458;2022-08-19T06:39:21;101091.29;;;21.15;17.36
70571;BME280;58135;50.948;-1.458;2022-08-19T06:41:42;101087.46;;;20.80;17.34
70571;BME280;58135;50.948;-1.458;2022-08-19T06:44:07;101088.22;;;19.20;17.48
70571;BME280;58135;50.948;-1.458;2022-08-19T06:46:32;101097.41;;;19.49;17.71
70571;BME280;58135;50.948;-1.458;2022-08-19T06:48:58;101101.49;;;21.21;17.85
70571;BME280;58135;50.948;-1.458;2022-08-19T06:51:23;101103.11;;;19.65;17.59
70571;BME280;58135;50.948;-1.458;2022-08-19T06:53:51;101100.95;;;20.69;17.70
70571;BME280;58135;50.948;-1.458;2022-08-19T06:56:14;101105.03;;;20.19;16.93
70571;BME280;58135;50.948;-1.458;2022-08-19T06:58:40;101110.50;;;19.75;17.63
70571;BME280;58135;50.948;-1.458;2022-08-19T07:01:05;101107.65;;;18.21;17.55
70571;BME280;58135;50.948;-1.458;2022-08-19T07:03:32;101108.58;;;20.63;17.38
70571;BME280;58135;50.948;-1.458;2022-08-19T07:05:55;101111.70;;;21.06;17.21
70571;BME280;58135;50.948;-1.458;2022-08-19T07:08:21;101111.71;;;21.63;16.89
70571;BME280;58135;50.948;-1.458;2022-08-19T07:10:47;101116.46;;;20.96;17.13
70571;BME280;58135;50.948;-1.458;2022-08-19T07:13:12;101119.65;;;21.02;16.91
70571;BME280;58135;50.948;-1.458;2022-08-19T07:15:38;101122.90;;;22.12;16.99
70571;BME280;58135;50.948;-1.458;2022-08-19T07:18:03;101124.23;;;21.42;16.16
70571;BME280;58135;50.948;-1.458;2022-08-19T07:20:28;101125.21;;;19.77;16.92
70571;BME280;58135;50.948;-1.458;2022-08-19T07:22:53;101127.09;;;20.58;16.43
70571;BME280;58135;50.948;-1.458;2022-08-19T07:25:19;101127.48;;;22.55;16.87
70571;BME280;58135;50.948;-1.458;2022-08-19T07:27:44;101133.09;;;20.77;16.85
70571;BME280;58135;50.948;-1.458;2022-08-19T07:30:10;101132.00;;;21.23;16.85
70571;BME280;58135;50.948;-1.458;2022-08-19T07:32:36;101131.32;;;21.51;16.97
70571;BME280;58135;50.948;-1.458;2022-08-19T07:35:01;101131.62;;;21.09;16.88
70571;BME280;58135;50.948;-1.458;2022-08-19T07:37:26;101131.81;;;19.00;16.79
70571;BME280;58135;50.948;-1.458;2022-08-19T07:39:51;101132.48;;;20.53;17.19
70571;BME280;58135;50.948;-1.458;2022-08-19T07:42:17;101132.70;;;17.96;17.58
70571;BME280;58135;50.948;-1.458;2022-08-19T07:44:42;101135.02;;;18.14;17.55
70571;BME280;58135;50.948;-1.458;2022-08-19T07:47:08;101135.66;;;17.84;17.82
70571;BME280;58135;50.948;-1.458;2022-08-19T07:49:34;101135.09;;;19.42;17.75
70571;BME280;58135;50.948;-1.458;2022-08-19T07:52:01;101134.61;;;18.40;17.66
70571;BME280;58135;50.948;-1.458;2022-08-19T07:54:25;101139.58;;;18.34;17.56
70571;BME280;58135;50.948;-1.458;2022-08-19T07:56:49;101142.47;;;18.06;18.04
70571;BME280;58135;50.948;-1.458;2022-08-19T07:59:21;101145.31;;;19.06;17.98
70571;BME280;58135;50.948;-1.458;2022-08-19T08:01:40;101147.66;;;18.56;17.88
70571;BME280;58135;50.948;-1.458;2022-08-19T08:04:07;101144.00;;;20.89;17.94
70571;BME280;58135;50.948;-1.458;2022-08-19T08:06:32;101143.75;;;17.61;17.72
70571;BME280;58135;50.948;-1.458;2022-08-19T08:08:57;101145.33;;;18.65;17.43
70571;BME280;58135;50.948;-1.458;2022-08-19T08:11:22;101141.55;;;20.51;17.59
70571;BME280;58135;50.948;-1.458;2022-08-19T08:13:48;101138.70;;;19.09;17.63
70571;BME280;58135;50.948;-1.458;2022-08-19T08:16:13;101138.96;;;20.11;17.51
70571;BME280;58135;50.948;-1.458;2022-08-19T08:18:38;101141.48;;;20.40;17.57
70571;BME280;58135;50.948;-1.458;2022-08-19T08:21:04;101145.64;;;20.09;16.68
70571;BME280;58135;50.948;-1.458;2022-08-19T08:23:30;101145.32;;;19.14;16.95
70571;BME280;58135;50.948;-1.458;2022-08-19T08:25:57;101149.29;;;20.32;17.00
70571;BME280;58135;50.948;-1.458;2022-08-19T08:28:20;101145.40;;;18.52;17.15
70571;BME280;58135;50.948;-1.458;2022-08-19T08:30:46;101144.33;;;21.86;16.97
70571;BME280;58135;50.948;-1.458;2022-08-19T08:33:11;101139.69;;;20.86;16.28
70571;BME280;58135;50.948;-1.458;2022-08-19T08:35:37;101141.02;;;21.09;16.11
70571;BME280;58135;50.948;-1.458;2022-08-19T08:38:14;101142.41;;;21.35;15.74
70571;BME280;58135;50.948;-1.458;2022-08-19T08:40:32;101144.65;;;21.40;15.90
70571;BME280;58135;50.948;-1.458;2022-08-19T08:42:57;101141.77;;;21.84;15.73
70571;BME280;58135;50.948;-1.458;2022-08-19T08:45:19;101148.31;;;22.11;16.02
70571;BME280;58135;50.948;-1.458;2022-08-19T08:47:48;101146.40;;;21.65;15.73
70571;BME280;58135;50.948;-1.458;2022-08-19T08:50:19;101153.36;;;21.10;15.99
70571;BME280;58135;50.948;-1.458;2022-08-19T08:52:39;101161.79;;;22.63;15.62
70571;BME280;58135;50.948;-1.458;2022-08-19T08:55:05;101166.60;;;22.15;15.09
70571;BME280;58135;50.948;-1.458;2022-08-19T08:57:30;101167.93;;;19.75;15.13
70571;BME280;58135;50.948;-1.458;2022-08-19T08:59:53;101162.64;;;22.95;14.82
70571;BME280;58135;50.948;-1.458;2022-08-19T09:04:42;101155.98;;;21.71;14.38
70571;BME280;58135;50.948;-1.458;2022-08-19T09:07:19;101156.16;;;20.31;14.59
70571;BME280;58135;50.948;-1.458;2022-08-19T09:09:36;101157.98;;;20.91;15.01
70571;BME280;58135;50.948;-1.458;2022-08-19T09:12:06;101163.78;;;20.92;14.80
70571;BME280;58135;50.948;-1.458;2022-08-19T09:14:34;101169.15;;;21.56;15.18
70571;BME280;58135;50.948;-1.458;2022-08-19T09:16:50;101167.78;;;20.42;14.92
70571;BME280;58135;50.948;-1.458;2022-08-19T09:19:15;101171.85;;;23.46;14.72
70571;BME280;58135;50.948;-1.458;2022-08-19T09:21:40;101168.44;;;19.62;14.20
70571;BME280;58135;50.948;-1.458;2022-08-19T09:24:06;101172.22;;;22.48;14.03
70571;BME280;58135;50.948;-1.458;2022-08-19T09:26:32;101170.13;;;21.40;13.90
70571;BME280;58135;50.948;-1.458;2022-08-19T09:28:57;101169.49;;;21.82;13.80
70571;BME280;58135;50.948;-1.458;2022-08-19T09:31:25;101172.72;;;21.64;13.64
70571;BME280;58135;50.948;-1.458;2022-08-19T09:33:48;101175.17;;;20.84;13.40
70571;BME280;58135;50.948;-1.458;2022-08-19T09:36:17;101176.11;;;22.69;12.68
70571;BME280;58135;50.948;-1.458;2022-08-19T09:38:39;101177.18;;;22.91;12.26
70571;BME280;58135;50.948;-1.458;2022-08-19T09:41:05;101177.07;;;20.77;12.60
70571;BME280;58135;50.948;-1.458;2022-08-19T09:43:30;101178.20;;;21.31;12.50
70571;BME280;58135;50.948;-1.458;2022-08-19T09:45:56;101177.41;;;20.41;12.86
70571;BME280;58135;50.948;-1.458;2022-08-19T09:48:21;101182.06;;;21.86;12.55
70571;BME280;58135;50.948;-1.458;2022-08-19T09:50:46;101181.48;;;19.59;12.23
70571;BME280;58135;50.948;-1.458;2022-08-19T09:53:11;101183.16;;;21.65;12.67
70571;BME280;58135;50.948;-1.458;2022-08-19T09:55:41;101176.95;;;19.84;12.51
70571;BME280;58135;50.948;-1.458;2022-08-19T09:58:02;101176.27;;;20.03;12.63
70571;BME280;58135;50.948;-1.458;2022-08-19T10:00:29;101173.98;;;20.69;12.19
70571;BME280;58135;50.948;-1.458;2022-08-19T10:02:54;101178.44;;;22.38;12.27
70571;BME280;58135;50.948;-1.458;2022-08-19T10:05:19;101173.82;;;19.11;12.04
70571;BME280;58135;50.948;-1.458;2022-08-19T10:07:45;101177.18;;;20.50;12.33
70571;BME280;58135;50.948;-1.458;2022-08-19T10:10:10;101185.75;;;20.22;11.95
70571;BME280;58135;50.948;-1.458;2022-08-19T10:12:36;101184.93;;;22.62;11.77
70571;BME280;58135;50.948;-1.458;2022-08-19T10:15:01;101183.93;;;22.21;11.48
70571;BME280;58135;50.948;-1.458;2022-08-19T10:17:26;101189.53;;;21.82;10.70
70571;BME280;58135;50.948;-1.458;2022-08-19T10:19:52;101190.71;;;20.67;10.92
70571;BME280;58135;50.948;-1.458;2022-08-19T10:22:18;101193.61;;;20.15;10.98
70571;BME280;58135;50.948;-1.458;2022-08-19T10:24:42;101188.36;;;20.46;10.83
70571;BME280;58135;50.948;-1.458;2022-08-19T10:27:08;101184.58;;;20.86;11.53
70571;BME280;58135;50.948;-1.458;2022-08-19T10:29:34;101184.24;;;22.71;11.35
70571;BME280;58135;50.948;-1.458;2022-08-19T10:32:00;101186.91;;;22.64;11.42
70571;BME280;58135;50.948;-1.458;2022-08-19T10:34:25;101186.28;;;22.37;10.22
70571;BME280;58135;50.948;-1.458;2022-08-19T10:36:56;101198.19;;;21.69;10.47
70571;BME280;58135;50.948;-1.458;2022-08-19T10:39:15;101188.99;;;23.00;10.33
70571;BME280;58135;50.948;-1.458;2022-08-19T10:41:41;101193.43;;;22.32;10.10
70571;BME280;58135;50.948;-1.458;2022-08-19T10:44:09;101198.95;;;20.71;9.84
70571;BME280;58135;50.948;-1.458;2022-08-19T10:46:37;101198.53;;;19.71;10.24
70571;BME280;58135;50.948;-1.458;2022-08-19T10:48:58;101194.82;;;21.85;10.20
70571;BME280;58135;50.948;-1.458;2022-08-19T10:51:23;101197.48;;;22.31;10.18
70571;BME280;58135;50.948;-1.458;2022-08-19T10:53:48;101201.63;;;20.98;10.09
70571;BME280;58135;50.948;-1.458;2022-08-19T10:56:15;101201.14;;;22.82;9.70
70571;BME280;58135;50.948;-1.458;2022-08-19T10:58:39;101204.50;;;22.17;10.04
70571;BME280;58135;50.948;-1.458;2022-08-19T11:01:05;101204.25;;;23.18;10.67
70571;BME280;58135;50.948;-1.458;2022-08-19T11:03:30;101211.63;;;22.82;9.69
70571;BME280;58135;50.948;-1.458;2022-08-19T11:05:58;101212.60;;;19.88;9.76
70571;BME280;58135;50.948;-1.458;2022-08-19T11:08:21;101207.96;;;22.72;8.91
70571;BME280;58135;50.948;-1.458;2022-08-19T11:10:46;101208.44;;;22.19;8.78
70571;BME280;58135;50.948;-1.458;2022-08-19T11:13:12;101209.03;;;23.53;9.80
70571;BME280;58135;50.948;-1.458;2022-08-19T11:15:37;101207.59;;;22.77;8.86
70571;BME280;58135;50.948;-1.458;2022-08-19T11:18:03;101206.97;;;22.30;9.51
70571;BME280;58135;50.948;-1.458;2022-08-19T11:20:29;101201.83;;;20.77;9.98
70571;BME280;58135;50.948;-1.458;2022-08-19T11:22:53;101196.00;;;20.23;9.83
70571;BME280;58135;50.948;-1.458;2022-08-19T11:25:20;101195.59;;;22.52;9.73
70571;BME280;58135;50.948;-1.458;2022-08-19T11:27:45;101194.33;;;22.17;10.14
70571;BME280;58135;50.948;-1.458;2022-08-19T11:30:12;101199.71;;;24.55;8.92
70571;BME280;58135;50.948;-1.458;2022-08-19T11:32:35;101198.08;;;22.23;9.10
70571;BME280;58135;50.948;-1.458;2022-08-19T11:35:01;101200.91;;;22.40;10.71
70571;BME280;58135;50.948;-1.458;2022-08-19T11:37:26;101194.69;;;21.15;9.15
70571;BME280;58135;50.948;-1.458;2022-08-19T11:39:52;101199.06;;;22.49;9.42
70571;BME280;58135;50.948;-1.458;2022-08-19T11:42:18;101193.92;;;24.31;9.07
70571;BME280;58135;50.948;-1.458;2022-08-19T11:44:43;101195.67;;;25.77;9.09
70571;BME280;58135;50.948;-1.458;2022-08-19T11:47:08;101196.00;;;24.76;8.76
70571;BME280;58135;50.948;-1.458;2022-08-19T11:49:34;101193.68;;;25.29;7.82
70571;BME280;58135;50.948;-1.458;2022-08-19T11:51:59;101197.14;;;26.05;7.04
70571;BME280;58135;50.948;-1.458;2022-08-19T11:54:25;101204.43;;;28.53;6.56
70571;BME280;58135;50.948;-1.458;2022-08-19T11:56:51;101201.59;;;29.68;6.02
70571;BME280;58135;50.948;-1.458;2022-08-19T11:59:15;101201.74;;;30.73;6.61
70571;BME280;58135;50.948;-1.458;2022-08-19T12:01:41;101201.39;;;30.11;5.12
70571;BME280;58135;50.948;-1.458;2022-08-19T12:04:07;101207.45;;;29.66;5.34
70571;BME280;58135;50.948;-1.458;2022-08-19T12:06:32;101205.08;;;32.83;5.33
70571;BME280;58135;50.948;-1.458;2022-08-19T12:08:58;101207.40;;;30.38;4.94
70571;BME280;58135;50.948;-1.458;2022-08-19T12:11:23;101201.88;;;30.72;5.65
70571;BME280;58135;50.948;-1.458;2022-08-19T12:13:48;101199.02;;;32.95;4.45
70571;BME280;58135;50.948;-1.458;2022-08-19T12:16:16;101190.27;;;32.03;4.93
70571;BME280;58135;50.948;-1.458;2022-08-19T12:18:39;101190.37;;;30.33;4.75
70571;BME280;58135;50.948;-1.458;2022-08-19T12:21:05;101191.24;;;31.94;4.89
70571;BME280;58135;50.948;-1.458;2022-08-19T12:23:30;101192.02;;;31.59;4.48
70571;BME280;58135;50.948;-1.458;2022-08-19T12:25:56;101189.58;;;28.44;4.99
70571;BME280;58135;50.948;-1.458;2022-08-19T12:28:23;101192.04;;;30.41;5.04
70571;BME280;58135;50.948;-1.458;2022-08-19T12:30:46;101190.87;;;28.44;5.34
70571;BME280;58135;50.948;-1.458;2022-08-19T12:33:11;101186.15;;;27.09;5.93